PWSweather.com
Personal Weather Stations
Station Observations
MACKBIG
Historic Main Street, Unionville, ON L3R6A5

Historic Main StreetUnionville, ON L3R6A5

Lat: 43.875506, Lon: -79.312903

Elevation: 590

Station Type: Davis VP2 + 6163

http://www.mackweather.com

Latest ConditionsUpdated 12:10:08 PM EDT Tuesday, Sep 23, 2014
Currently Today's Max Today's Min Today's Average
Temperature 70.4°F21.3°C 70.4°F21.3°C 46.1°F7.8°C 51.5°F10.8°C
Dew Point 54.9°F12.7°C 55.5°F13.1°C 41.4°F5.2°C 46.1°F7.8°C
Winds 1.0 mph WNW1.6 kmh WNW 7.0 mph W11.3 kmh W - 0.7 mph 1.1 kmh
Wind Gusts 5.0 mph8.0 kmh 16.0 mph25.7 kmh - -
Humidity 58% 91% 58% 83%
Pressure 30.24 in1024.0 mb 30.24 in1024.0 mb 30.17 in1021.7 mb -
Hour Temp Dew Point Humidity Winds Wind Gusts Pressure Precip Precip Rate Daily Precip Total
12:10 PM 70.4°F21.3°C 54.9°F12.7°C 58% 1.0 mph WNW1.6 kmh WNW 5.0 mph8.0 kmh 30.24 in1024.0 mb 0.00 in0.0 mm 0.00 in/hr0.0 mm/hr 0.00 in0.0 mm
12:00 PM 70.1°F21.2°C 54.6°F12.6°C 58% 2.0 mph W3.2 kmh W 9.0 mph14.5 kmh 30.24 in1024.0 mb 0.00 in0.0 mm 0.00 in/hr0.0 mm/hr 0.00 in0.0 mm
11:50 AM 69.6°F20.9°C 55.5°F13.1°C 61% Calm Calm 2.0 mph3.2 kmh 30.24 in1024.0 mb 0.00 in0.0 mm 0.00 in/hr0.0 mm/hr 0.00 in0.0 mm
11:40 AM 69.2°F20.7°C 55.1°F12.8°C 61% 5.0 mph W8.0 kmh W 8.0 mph12.9 kmh 30.23 in1023.7 mb 0.00 in0.0 mm 0.00 in/hr0.0 mm/hr 0.00 in0.0 mm
11:30 AM 68.4°F20.2°C 54.9°F12.7°C 62% Calm Calm 2.0 mph3.2 kmh 30.24 in1024.0 mb 0.00 in0.0 mm 0.00 in/hr0.0 mm/hr 0.00 in0.0 mm
11:20 AM 67.7°F19.8°C 55.1°F12.8°C 64% 1.0 mph NW1.6 kmh NW 3.0 mph4.8 kmh 30.24 in1024.0 mb 0.00 in0.0 mm 0.00 in/hr0.0 mm/hr 0.00 in0.0 mm
11:10 AM 67.0°F19.4°C 55.3°F12.9°C 66% 5.0 mph NW8.0 kmh NW 7.0 mph11.3 kmh 30.24 in1024.0 mb 0.00 in0.0 mm 0.00 in/hr0.0 mm/hr 0.00 in0.0 mm
11:00 AM 66.4°F19.1°C 54.3°F12.4°C 65% 1.0 mph SW1.6 kmh SW 10.0 mph16.1 kmh 30.23 in1023.7 mb 0.00 in0.0 mm 0.00 in/hr0.0 mm/hr 0.00 in0.0 mm
10:50 AM 65.9°F18.8°C 54.6°F12.6°C 67% 2.0 mph WNW3.2 kmh WNW 7.0 mph11.3 kmh 30.23 in1023.7 mb 0.00 in0.0 mm 0.00 in/hr0.0 mm/hr 0.00 in0.0 mm
10:40 AM 65.1°F18.4°C 54.3°F12.4°C 68% 6.0 mph W9.7 kmh W 12.0 mph19.3 kmh 30.23 in1023.7 mb 0.00 in0.0 mm 0.00 in/hr0.0 mm/hr 0.00 in0.0 mm
10:30 AM 64.3°F17.9°C 54.3°F12.4°C 70% Calm Calm -- 30.22 in1023.4 mb 0.00 in0.0 mm 0.00 in/hr0.0 mm/hr 0.00 in0.0 mm
10:20 AM 63.5°F17.5°C 53.5°F11.9°C 70% 1.0 mph W1.6 kmh W 6.0 mph9.7 kmh 30.23 in1023.7 mb 0.00 in0.0 mm 0.00 in/hr0.0 mm/hr 0.00 in0.0 mm
10:10 AM 62.9°F17.2°C 54.1°F12.3°C 73% 2.0 mph W3.2 kmh W 7.0 mph11.3 kmh 30.22 in1023.4 mb 0.00 in0.0 mm 0.00 in/hr0.0 mm/hr 0.00 in0.0 mm
10:00 AM 61.8°F16.6°C 53.4°F11.9°C 74% 3.0 mph W4.8 kmh W 3.0 mph4.8 kmh 30.22 in1023.4 mb 0.00 in0.0 mm 0.00 in/hr0.0 mm/hr 0.00 in0.0 mm
09:50 AM 60.3°F15.7°C 53.4°F11.9°C 78% 5.0 mph W8.0 kmh W 9.0 mph14.5 kmh 30.22 in1023.4 mb 0.00 in0.0 mm 0.00 in/hr0.0 mm/hr 0.00 in0.0 mm
09:40 AM 58.5°F14.7°C 53.0°F11.7°C 82% 7.0 mph W11.3 kmh W 12.0 mph19.3 kmh 30.22 in1023.4 mb 0.00 in0.0 mm 0.00 in/hr0.0 mm/hr 0.00 in0.0 mm
09:30 AM 56.9°F13.8°C 52.8°F11.6°C 86% 6.0 mph W9.7 kmh W 16.0 mph25.7 kmh 30.22 in1023.4 mb 0.00 in0.0 mm 0.00 in/hr0.0 mm/hr 0.00 in0.0 mm
09:20 AM 55.3°F12.9°C 52.2°F11.2°C 89% Calm Calm -- 30.22 in1023.4 mb 0.00 in0.0 mm 0.00 in/hr0.0 mm/hr 0.00 in0.0 mm
09:10 AM 54.2°F12.3°C 51.3°F10.7°C 90% 1.0 mph W1.6 kmh W -- 30.22 in1023.4 mb 0.00 in0.0 mm 0.00 in/hr0.0 mm/hr 0.00 in0.0 mm
09:00 AM 52.5°F11.4°C 49.9°F9.9°C 91% Calm Calm -- 30.23 in1023.7 mb 0.00 in0.0 mm 0.00 in/hr0.0 mm/hr 0.00 in0.0 mm
08:50 AM 50.8°F10.4°C 48.2°F9.0°C 91% 2.0 mph W3.2 kmh W 7.0 mph11.3 kmh 30.23 in1023.7 mb 0.00 in0.0 mm 0.00 in/hr0.0 mm/hr 0.00 in0.0 mm
08:40 AM 49.2°F9.6°C 46.7°F8.2°C 91% Calm Calm -- 30.23 in1023.7 mb 0.00 in0.0 mm 0.00 in/hr0.0 mm/hr 0.00 in0.0 mm
08:30 AM 48.0°F8.9°C 45.2°F7.3°C 90% Calm Calm 2.0 mph3.2 kmh 30.23 in1023.7 mb 0.00 in0.0 mm 0.00 in/hr0.0 mm/hr 0.00 in0.0 mm
08:20 AM 47.4°F8.6°C 44.3°F6.8°C 89% Calm Calm -- 30.23 in1023.7 mb 0.00 in0.0 mm 0.00 in/hr0.0 mm/hr 0.00 in0.0 mm
08:10 AM 47.0°F8.3°C 43.9°F6.6°C 89% Calm Calm -- 30.23 in1023.7 mb 0.00 in0.0 mm 0.00 in/hr0.0 mm/hr 0.00 in0.0 mm
08:00 AM 46.8°F8.2°C 43.7°F6.5°C 89% Calm Calm -- 30.23 in1023.7 mb 0.00 in0.0 mm 0.00 in/hr0.0 mm/hr 0.00 in0.0 mm
07:50 AM 46.7°F8.2°C 43.3°F6.3°C 88% Calm Calm -- 30.23 in1023.7 mb 0.00 in0.0 mm 0.00 in/hr0.0 mm/hr 0.00 in0.0 mm
07:40 AM 46.8°F8.2°C 43.4°F6.3°C 88% Calm Calm -- 30.23 in1023.7 mb 0.00 in0.0 mm 0.00 in/hr0.0 mm/hr 0.00 in0.0 mm
07:30 AM 46.9°F8.3°C 43.5°F6.4°C 88% Calm Calm -- 30.23 in1023.7 mb 0.00 in0.0 mm 0.00 in/hr0.0 mm/hr 0.00 in0.0 mm
07:20 AM 47.0°F8.3°C 43.6°F6.4°C 88% Calm Calm -- 30.22 in1023.4 mb 0.00 in0.0 mm 0.00 in/hr0.0 mm/hr 0.00 in0.0 mm
07:10 AM 47.1°F8.4°C 43.7°F6.5°C 88% Calm Calm -- 30.22 in1023.4 mb 0.00 in0.0 mm 0.00 in/hr0.0 mm/hr 0.00 in0.0 mm
07:00 AM 47.2°F8.4°C 43.8°F6.6°C 88% Calm Calm -- 30.22 in1023.4 mb 0.00 in0.0 mm 0.00 in/hr0.0 mm/hr 0.00 in0.0 mm
06:50 AM 47.2°F8.4°C 43.8°F6.6°C 88% Calm Calm -- 30.22 in1023.4 mb 0.00 in0.0 mm 0.00 in/hr0.0 mm/hr 0.00 in0.0 mm
06:40 AM 47.2°F8.4°C 43.8°F6.6°C 88% Calm Calm -- 30.21 in1023.0 mb 0.00 in0.0 mm 0.00 in/hr0.0 mm/hr 0.00 in0.0 mm
06:30 AM 47.2°F8.4°C 43.8°F6.6°C 88% Calm Calm -- 30.21 in1023.0 mb 0.00 in0.0 mm 0.00 in/hr0.0 mm/hr 0.00 in0.0 mm
06:20 AM 47.3°F8.5°C 43.9°F6.6°C 88% Calm Calm -- 30.20 in1022.7 mb 0.00 in0.0 mm 0.00 in/hr0.0 mm/hr 0.00 in0.0 mm
06:10 AM 47.2°F8.4°C 43.8°F6.6°C 88% Calm Calm -- 30.20 in1022.7 mb 0.00 in0.0 mm 0.00 in/hr0.0 mm/hr 0.00 in0.0 mm
06:00 AM 47.2°F8.4°C 43.5°F6.4°C 87% Calm Calm -- 30.20 in1022.7 mb 0.00 in0.0 mm 0.00 in/hr0.0 mm/hr 0.00 in0.0 mm
05:50 AM 47.2°F8.4°C 43.5°F6.4°C 87% Calm Calm -- 30.20 in1022.7 mb 0.00 in0.0 mm 0.00 in/hr0.0 mm/hr 0.00 in0.0 mm
05:40 AM 47.2°F8.4°C 43.5°F6.4°C 87% Calm Calm -- 30.20 in1022.7 mb 0.00 in0.0 mm 0.00 in/hr0.0 mm/hr 0.00 in0.0 mm
05:30 AM 47.1°F8.4°C 43.4°F6.3°C 87% Calm Calm -- 30.20 in1022.7 mb 0.00 in0.0 mm 0.00 in/hr0.0 mm/hr 0.00 in0.0 mm
05:20 AM 47.2°F8.4°C 43.5°F6.4°C 87% Calm Calm -- 30.20 in1022.7 mb 0.00 in0.0 mm 0.00 in/hr0.0 mm/hr 0.00 in0.0 mm
05:10 AM 47.2°F8.4°C 43.2°F6.2°C 86% Calm Calm 3.0 mph4.8 kmh 30.20 in1022.7 mb 0.00 in0.0 mm 0.00 in/hr0.0 mm/hr 0.00 in0.0 mm
05:00 AM 47.3°F8.5°C 43.3°F6.3°C 86% Calm Calm -- 30.20 in1022.7 mb 0.00 in0.0 mm 0.00 in/hr0.0 mm/hr 0.00 in0.0 mm
04:50 AM 47.4°F8.6°C 43.4°F6.3°C 86% 1.0 mph WNW1.6 kmh WNW 5.0 mph8.0 kmh 30.20 in1022.7 mb 0.00 in0.0 mm 0.00 in/hr0.0 mm/hr 0.00 in0.0 mm
04:40 AM 47.5°F8.6°C 43.5°F6.4°C 86% Calm Calm 3.0 mph4.8 kmh 30.20 in1022.7 mb 0.00 in0.0 mm 0.00 in/hr0.0 mm/hr 0.00 in0.0 mm
04:30 AM 47.6°F8.7°C 43.6°F6.4°C 86% 1.0 mph WNW1.6 kmh WNW 5.0 mph8.0 kmh 30.20 in1022.7 mb 0.00 in0.0 mm 0.00 in/hr0.0 mm/hr 0.00 in0.0 mm
04:20 AM 47.8°F8.8°C 43.8°F6.6°C 86% Calm Calm -- 30.20 in1022.7 mb 0.00 in0.0 mm 0.00 in/hr0.0 mm/hr 0.00 in0.0 mm
04:10 AM 47.9°F8.8°C 43.9°F6.6°C 86% Calm Calm -- 30.20 in1022.7 mb 0.00 in0.0 mm 0.00 in/hr0.0 mm/hr 0.00 in0.0 mm
04:00 AM 47.9°F8.8°C 43.9°F6.6°C 86% Calm Calm -- 30.19 in1022.4 mb 0.00 in0.0 mm 0.00 in/hr0.0 mm/hr 0.00 in0.0 mm
03:50 AM 47.9°F8.8°C 44.2°F6.8°C 87% Calm Calm -- 30.19 in1022.4 mb 0.00 in0.0 mm 0.00 in/hr0.0 mm/hr 0.00 in0.0 mm
03:40 AM 47.8°F8.8°C 44.1°F6.7°C 87% Calm Calm -- 30.19 in1022.4 mb 0.00 in0.0 mm 0.00 in/hr0.0 mm/hr 0.00 in0.0 mm
03:30 AM 47.5°F8.6°C 43.8°F6.6°C 87% Calm Calm -- 30.19 in1022.4 mb 0.00 in0.0 mm 0.00 in/hr0.0 mm/hr 0.00 in0.0 mm
03:20 AM 47.3°F8.5°C 43.6°F6.4°C 87% Calm Calm -- 30.19 in1022.4 mb 0.00 in0.0 mm 0.00 in/hr0.0 mm/hr 0.00 in0.0 mm
03:10 AM 47.0°F8.3°C 43.3°F6.3°C 87% Calm Calm -- 30.19 in1022.4 mb 0.00 in0.0 mm 0.00 in/hr0.0 mm/hr 0.00 in0.0 mm
03:00 AM 46.7°F8.2°C 43.0°F6.1°C 87% Calm Calm -- 30.19 in1022.4 mb 0.00 in0.0 mm 0.00 in/hr0.0 mm/hr 0.00 in0.0 mm
02:50 AM 46.4°F8.0°C 42.7°F5.9°C 87% Calm Calm 1.0 mph1.6 kmh 30.18 in1022.0 mb 0.00 in0.0 mm 0.00 in/hr0.0 mm/hr 0.00 in0.0 mm
02:40 AM 46.2°F7.9°C 42.5°F5.8°C 87% Calm Calm -- 30.18 in1022.0 mb 0.00 in0.0 mm 0.00 in/hr0.0 mm/hr 0.00 in0.0 mm
02:30 AM 46.1°F7.8°C 42.1°F5.6°C 86% Calm Calm -- 30.18 in1022.0 mb 0.00 in0.0 mm 0.00 in/hr0.0 mm/hr 0.00 in0.0 mm
02:20 AM 46.2°F7.9°C 42.2°F5.7°C 86% Calm Calm -- 30.18 in1022.0 mb 0.00 in0.0 mm 0.00 in/hr0.0 mm/hr 0.00 in0.0 mm
02:10 AM 46.3°F7.9°C 42.3°F5.7°C 86% Calm Calm -- 30.18 in1022.0 mb 0.00 in0.0 mm 0.00 in/hr0.0 mm/hr 0.00 in0.0 mm
02:00 AM 46.2°F7.9°C 42.3°F5.7°C 86% Calm Calm -- 30.18 in1022.0 mb 0.00 in0.0 mm 0.00 in/hr0.0 mm/hr 0.00 in0.0 mm
01:50 AM 46.2°F7.9°C 42.3°F5.7°C 86% 1.0 mph WNW1.6 kmh WNW -- 30.18 in1022.0 mb 0.00 in0.0 mm 0.00 in/hr0.0 mm/hr 0.00 in0.0 mm
01:40 AM 46.2°F7.9°C 42.2°F5.7°C 86% Calm Calm -- 30.18 in1022.0 mb 0.00 in0.0 mm 0.00 in/hr0.0 mm/hr 0.00 in0.0 mm
01:30 AM 46.1°F7.8°C 41.9°F5.5°C 85% Calm Calm -- 30.18 in1022.0 mb 0.00 in0.0 mm 0.00 in/hr0.0 mm/hr 0.00 in0.0 mm
01:20 AM 46.1°F7.8°C 41.8°F5.4°C 85% Calm Calm -- 30.18 in1022.0 mb 0.00 in0.0 mm 0.00 in/hr0.0 mm/hr 0.00 in0.0 mm
01:10 AM 46.2°F7.9°C 41.9°F5.5°C 85% Calm Calm -- 30.18 in1022.0 mb 0.00 in0.0 mm 0.00 in/hr0.0 mm/hr 0.00 in0.0 mm
01:00 AM 46.3°F7.9°C 42.0°F5.6°C 85% Calm Calm -- 30.18 in1022.0 mb 0.00 in0.0 mm 0.00 in/hr0.0 mm/hr 0.00 in0.0 mm
12:50 AM 46.2°F7.9°C 41.6°F5.3°C 84% Calm Calm -- 30.18 in1022.0 mb 0.00 in0.0 mm 0.00 in/hr0.0 mm/hr 0.00 in0.0 mm
12:40 AM 46.2°F7.9°C 41.6°F5.3°C 84% Calm Calm -- 30.18 in1022.0 mb 0.00 in0.0 mm 0.00 in/hr0.0 mm/hr 0.00 in0.0 mm
12:30 AM 46.2°F7.9°C 41.6°F5.3°C 84% Calm Calm -- 30.18 in1022.0 mb 0.00 in0.0 mm 0.00 in/hr0.0 mm/hr 0.00 in0.0 mm
12:20 AM 46.3°F7.9°C 41.4°F5.2°C 83% Calm Calm -- 30.17 in1021.7 mb 0.00 in0.0 mm 0.00 in/hr0.0 mm/hr 0.00 in0.0 mm
12:10 AM 46.5°F8.1°C 41.6°F5.3°C 83% Calm Calm -- 30.17 in1021.7 mb 0.00 in0.0 mm 0.00 in/hr0.0 mm/hr 0.00 in0.0 mm
12:00 AM 46.6°F8.1°C 41.7°F5.4°C 83% Calm Calm -- 30.17 in1021.7 mb 0.00 in0.0 mm 0.00 in/hr0.0 mm/hr 0.00 in0.0 mm